createdAt,value
2022-10-11T00:01:43.697Z,98003.35
2022-10-11T00:04:10.408Z,98006.35
2022-10-11T00:06:43.319Z,98010.65
2022-10-11T00:09:16.134Z,98013.80
2022-10-11T00:11:42.866Z,98016.77
2022-10-11T00:14:09.659Z,98020.71
2022-10-11T00:16:38.681Z,98021.21
2022-10-11T00:19:05.299Z,98021.15
2022-10-11T00:21:31.947Z,98015.73
2022-10-11T00:23:58.500Z,98024.14
2022-10-11T00:26:25.075Z,98023.41
2022-10-11T00:28:52.765Z,98025.34
2022-10-11T00:31:19.627Z,98034.04
2022-10-11T00:33:46.514Z,98037.77
2022-10-11T00:36:14.883Z,98039.53
2022-10-11T00:38:41.462Z,98040.82
2022-10-11T00:41:08.158Z,98037.59
2022-10-11T00:43:35.303Z,98040.70
2022-10-11T00:46:24.527Z,98042.42
2022-10-11T00:48:56.958Z,98040.08
2022-10-11T00:51:47.111Z,98038.17
2022-10-11T00:54:17.766Z,98034.55
2022-10-11T00:56:49.443Z,98035.45
2022-10-11T00:59:26.418Z,98031.80
2022-10-11T01:01:53.483Z,98031.14
2022-10-11T01:04:20.851Z,98035.86
2022-10-11T01:06:48.898Z,98039.45
2022-10-11T01:09:15.967Z,98035.52
2022-10-11T01:11:44.098Z,98041.38
2022-10-11T01:14:29.094Z,98040.56
2022-10-11T01:17:32.929Z,98046.34
2022-10-11T01:20:26.492Z,98051.77
2022-10-11T01:23:11.945Z,98050.86
2022-10-11T01:25:59.386Z,98047.73
2022-10-11T01:28:48.021Z,98052.42
2022-10-11T01:31:22.600Z,98052.00
2022-10-11T01:33:59.171Z,98056.31
2022-10-11T01:36:41.605Z,98059.60
2022-10-11T01:39:31.921Z,98057.40
2022-10-11T01:42:01.919Z,98056.02
2022-10-11T01:44:29.111Z,98055.21
2022-10-11T01:46:56.318Z,98060.98
2022-10-11T01:49:22.974Z,98061.02
2022-10-11T01:51:53.691Z,98066.83
2022-10-11T01:55:08.640Z,98065.38
2022-10-11T01:57:41.860Z,98068.45
2022-10-11T02:00:17.674Z,98067.92
2022-10-11T02:02:50.228Z,98069.94
2022-10-11T02:05:43.247Z,98069.41
2022-10-11T02:08:25.701Z,98072.52
2022-10-11T02:11:06.870Z,98076.80
2022-10-11T02:13:41.389Z,98073.53
2022-10-11T02:16:13.051Z,98077.65
2022-10-11T02:18:46.739Z,98077.44
2022-10-11T02:21:17.015Z,98076.59
2022-10-11T02:23:48.431Z,98071.14
2022-10-11T02:26:16.515Z,98070.18
2022-10-11T02:28:46.270Z,98071.48
2022-10-11T02:31:14.647Z,98067.97
2022-10-11T02:33:50.604Z,98068.12
2022-10-11T02:36:26.696Z,98071.30
2022-10-11T02:38:59.179Z,98069.52
2022-10-11T02:41:31.277Z,98069.67
2022-10-11T02:44:05.240Z,98066.38
2022-10-11T02:46:32.649Z,98069.11
2022-10-11T02:49:00.667Z,98070.26
2022-10-11T02:51:30.406Z,98071.08
2022-10-11T02:53:57.322Z,98077.96
2022-10-11T02:56:23.926Z,98082.80
2022-10-11T02:58:50.540Z,98081.95
2022-10-11T03:01:17.219Z,98076.56
2022-10-11T03:03:43.866Z,98076.56
2022-10-11T03:06:10.546Z,98076.71
2022-10-11T03:08:37.206Z,98081.61
2022-10-11T03:11:03.923Z,98082.62
2022-10-11T03:13:30.480Z,98078.09
2022-10-11T03:16:03.186Z,98079.23
2022-10-11T03:18:31.078Z,98080.69
2022-10-11T03:20:57.769Z,98078.87
2022-10-11T03:23:24.380Z,98073.68
2022-10-11T03:25:52.174Z,98076.92
2022-10-11T03:28:20.020Z,98075.17
2022-10-11T03:30:48.540Z,98074.51
2022-10-11T03:33:15.601Z,98075.23
2022-10-11T03:35:47.633Z,98073.68
2022-10-11T03:38:19.970Z,98075.97
2022-10-11T03:40:46.799Z,98078.17
2022-10-11T03:43:13.882Z,98078.06
2022-10-11T03:45:43.845Z,98078.45
2022-10-11T03:48:11.348Z,98086.24
2022-10-11T03:50:38.320Z,98090.00
2022-10-11T03:53:06.822Z,98091.30
2022-10-11T03:55:33.552Z,98092.80
2022-10-11T03:58:00.308Z,98092.89
2022-10-11T04:00:26.988Z,98095.52
2022-10-11T04:02:53.726Z,98101.45
2022-10-11T04:05:20.372Z,98105.39
2022-10-11T04:07:47.034Z,98108.55
2022-10-11T04:10:14.397Z,98111.39
2022-10-11T04:12:41.128Z,98111.36
2022-10-11T04:15:08.317Z,98119.77
2022-10-11T04:17:34.957Z,98118.61
2022-10-11T04:20:01.731Z,98119.20
2022-10-11T04:22:28.297Z,98115.59
2022-10-11T04:24:54.904Z,98116.36
2022-10-11T04:27:21.992Z,98117.52
2022-10-11T04:29:48.570Z,98118.91
2022-10-11T04:32:15.238Z,98116.85
2022-10-11T04:34:41.960Z,98115.88
2022-10-11T04:37:08.552Z,98114.06
2022-10-11T04:39:35.157Z,98111.83
2022-10-11T04:42:01.748Z,98115.01
2022-10-11T04:44:28.554Z,98112.83
2022-10-11T04:46:55.184Z,98113.52
2022-10-11T04:49:21.902Z,98123.02
2022-10-11T04:51:48.481Z,98124.05
2022-10-11T04:54:15.250Z,98127.95
2022-10-11T04:56:41.873Z,98130.73
2022-10-11T04:59:08.487Z,98132.09
2022-10-11T05:01:35.412Z,98130.13
2022-10-11T05:04:02.116Z,98137.73
2022-10-11T05:06:28.728Z,98136.48
2022-10-11T05:08:55.401Z,98139.52
2022-10-11T05:11:22.416Z,98142.46
2022-10-11T05:13:48.971Z,98139.31
2022-10-11T05:16:16.726Z,98145.65
2022-10-11T05:18:44.025Z,98153.45
2022-10-11T05:21:19.920Z,98155.20
2022-10-11T05:23:47.959Z,98154.20
2022-10-11T05:26:15.583Z,98163.99
2022-10-11T05:28:42.615Z,98171.91
2022-10-11T05:31:09.655Z,98178.11
2022-10-11T05:33:36.537Z,98185.48
2022-10-11T05:36:04.125Z,98189.14
2022-10-11T05:38:31.062Z,98189.41
2022-10-11T05:41:05.387Z,98190.14
2022-10-11T05:43:32.414Z,98191.10
2022-10-11T05:45:59.726Z,98190.31
2022-10-11T05:48:26.988Z,98195.67
2022-10-11T05:50:58.559Z,98201.81
2022-10-11T05:53:25.150Z,98204.04
2022-10-11T05:55:51.827Z,98205.91
2022-10-11T05:58:18.795Z,98208.82
2022-10-11T06:00:45.407Z,98217.41
2022-10-11T06:03:13.557Z,98217.90
2022-10-11T06:05:40.387Z,98225.14
2022-10-11T06:08:08.773Z,98225.95
2022-10-11T06:10:37.349Z,98229.81
2022-10-11T06:13:04.598Z,98229.52
2022-10-11T06:15:31.285Z,98225.43
2022-10-11T06:17:59.325Z,98229.14
2022-10-11T06:20:27.065Z,98230.30
2022-10-11T06:22:53.749Z,98229.58
2022-10-11T06:25:20.355Z,98234.84
2022-10-11T06:27:46.949Z,98237.22
2022-10-11T06:30:14.197Z,98243.13
2022-10-11T06:32:40.786Z,98250.38
2022-10-11T06:35:07.862Z,98257.64
2022-10-11T06:37:34.444Z,98258.02
2022-10-11T06:40:01.182Z,98261.80
2022-10-11T06:42:27.780Z,98260.25
2022-10-11T06:44:54.792Z,98266.15
2022-10-11T06:47:21.336Z,98266.14
2022-10-11T06:49:47.971Z,98267.21
2022-10-11T06:52:14.565Z,98269.70
2022-10-11T06:54:44.742Z,98270.98
2022-10-11T06:57:12.096Z,98279.45
2022-10-11T06:59:38.729Z,98280.34
2022-10-11T07:02:05.360Z,98285.67
2022-10-11T07:04:34.014Z,98290.70
2022-10-11T07:07:01.216Z,98293.48
2022-10-11T07:09:27.804Z,98297.29
2022-10-11T07:11:54.524Z,98301.48
2022-10-11T07:14:21.135Z,98306.81
2022-10-11T07:16:47.782Z,98306.27
2022-10-11T07:19:14.566Z,98312.71
2022-10-11T07:21:41.103Z,98312.51
2022-10-11T07:24:07.829Z,98319.41
2022-10-11T07:26:38.809Z,98317.41
2022-10-11T07:29:08.369Z,98320.96
2022-10-11T07:31:40.187Z,98320.71
2022-10-11T07:34:07.135Z,98322.82
2022-10-11T07:36:33.978Z,98323.98
2022-10-11T07:39:00.679Z,98325.21
2022-10-11T07:41:27.387Z,98324.52
2022-10-11T07:43:55.116Z,98321.22
2022-10-11T07:46:22.017Z,98320.80
2022-10-11T07:48:50.351Z,98326.09
2022-10-11T07:51:22.202Z,98324.56
2022-10-11T07:53:51.159Z,98328.69
2022-10-11T07:56:23.324Z,98332.89
2022-10-11T07:58:54.564Z,98339.19
2022-10-11T08:01:21.789Z,98338.96
2022-10-11T08:03:49.704Z,98339.39
2022-10-11T08:06:18.498Z,98333.62
2022-10-11T08:08:45.217Z,98336.02
2022-10-11T08:11:20.768Z,98339.11
2022-10-11T08:13:47.360Z,98340.21
2022-10-11T08:16:14.321Z,98343.48
2022-10-11T08:18:41.001Z,98351.63
2022-10-11T08:21:13.699Z,98355.52
2022-10-11T08:23:40.440Z,98355.83
2022-10-11T08:26:07.788Z,98355.48
2022-10-11T08:28:34.965Z,98353.84
2022-10-11T08:31:02.274Z,98352.90
2022-10-11T08:33:28.889Z,98360.17
2022-10-11T08:35:57.281Z,98366.88
2022-10-11T08:38:24.169Z,98368.48
2022-10-11T08:40:55.105Z,98369.81
2022-10-11T08:43:54.297Z,98373.19
2022-10-11T08:46:30.917Z,98376.77
2022-10-11T08:48:58.633Z,98376.62
2022-10-11T08:51:30.923Z,98380.27
2022-10-11T08:54:07.133Z,98379.56
2022-10-11T08:56:37.802Z,98380.88
2022-10-11T08:59:13.634Z,98381.60
2022-10-11T09:01:52.742Z,98385.13
2022-10-11T09:04:19.651Z,98380.52
2022-10-11T09:06:52.207Z,98386.05
2022-10-11T09:09:28.000Z,98388.00
2022-10-11T09:12:22.796Z,98386.08
2022-10-11T09:15:17.909Z,98391.40
2022-10-11T09:18:09.850Z,98389.70
2022-10-11T09:20:52.447Z,98392.75
2022-10-11T09:23:59.461Z,98390.89
2022-10-11T09:26:31.551Z,98392.33
2022-10-11T09:29:13.423Z,98392.87
2022-10-11T09:31:42.076Z,98390.27
2022-10-11T09:34:12.664Z,98395.96
2022-10-11T09:36:45.254Z,98396.21
2022-10-11T09:39:17.826Z,98394.41
2022-10-11T09:41:54.321Z,98399.51
2022-10-11T09:44:27.286Z,98399.55
2022-10-11T09:46:55.788Z,98399.48
2022-10-11T09:49:29.875Z,98397.46
2022-10-11T09:52:00.384Z,98398.85
2022-10-11T09:54:49.080Z,98397.64
2022-10-11T09:57:39.975Z,98400.96
2022-10-11T10:00:08.716Z,98403.60
2022-10-11T10:02:47.637Z,98402.20
2022-10-11T10:05:23.554Z,98409.89
2022-10-11T10:08:09.112Z,98408.87
2022-10-11T10:10:55.797Z,98411.11
2022-10-11T10:13:29.878Z,98418.98
2022-10-11T10:16:01.346Z,98419.55
2022-10-11T10:18:37.735Z,98420.96
2022-10-11T10:21:09.326Z,98424.02
2022-10-11T10:23:37.471Z,98424.27
2022-10-11T10:26:20.849Z,98426.56
2022-10-11T10:29:17.199Z,98427.91
2022-10-11T10:32:13.521Z,98427.18
2022-10-11T10:35:03.408Z,98428.16
2022-10-11T10:37:36.356Z,98430.28
2022-10-11T10:40:08.510Z,98427.30
2022-10-11T10:42:35.415Z,98427.09
2022-10-11T10:45:02.640Z,98428.09
2022-10-11T10:47:42.725Z,98434.25
2022-10-11T10:50:19.291Z,98435.94
2022-10-11T10:53:18.131Z,98437.55
2022-10-11T10:55:50.588Z,98435.86
2022-10-11T10:58:20.178Z,98435.83
2022-10-11T11:00:52.231Z,98438.41
2022-10-11T11:03:29.146Z,98441.55
2022-10-11T11:06:07.092Z,98443.97
2022-10-11T11:08:46.741Z,98442.12
2022-10-11T11:11:19.391Z,98442.55
2022-10-11T11:14:21.722Z,98445.41
2022-10-11T11:17:06.010Z,98447.42
2022-10-11T11:20:10.573Z,98445.98
2022-10-11T11:22:47.820Z,98450.67
2022-10-11T11:25:31.442Z,98449.52
2022-10-11T11:28:28.240Z,98452.80
2022-10-11T11:31:16.554Z,98451.64
2022-10-11T11:33:52.192Z,98455.21
2022-10-11T11:36:27.724Z,98457.23
2022-10-11T11:39:02.369Z,98458.70
2022-10-11T11:41:37.329Z,98456.92
2022-10-11T11:44:12.238Z,98455.70
2022-10-11T11:46:44.154Z,98461.10
2022-10-11T11:49:19.298Z,98458.68
2022-10-11T11:51:47.890Z,98464.00
2022-10-11T11:54:44.705Z,98458.56
2022-10-11T11:57:31.525Z,98456.83
2022-10-11T12:00:17.452Z,98456.30
2022-10-11T12:02:55.341Z,98460.50
2022-10-11T12:05:33.728Z,98461.90
2022-10-11T12:08:24.264Z,98466.84
2022-10-11T12:10:50.786Z,98467.72
2022-10-11T12:13:32.419Z,98465.10
2022-10-11T12:16:14.453Z,98465.67
2022-10-11T12:18:55.184Z,98463.79
2022-10-11T12:21:31.135Z,98465.38
2022-10-11T12:24:20.093Z,98460.42
2022-10-11T12:26:48.732Z,98460.73
2022-10-11T12:29:18.420Z,98459.59
2022-10-11T12:31:50.858Z,98458.75
2022-10-11T12:34:34.399Z,98456.39
2022-10-11T12:37:21.334Z,98458.82
2022-10-11T12:39:52.990Z,98460.17
2022-10-11T12:42:27.290Z,98458.36
2022-10-11T12:45:12.813Z,98461.53
2022-10-11T12:47:46.977Z,98465.28
2022-10-11T12:50:39.778Z,98465.02
2022-10-11T12:53:21.514Z,98462.15
2022-10-11T12:56:33.278Z,98462.84
2022-10-11T12:59:04.657Z,98460.58
2022-10-11T13:01:49.134Z,98458.78
2022-10-11T13:04:19.160Z,98459.92
2022-10-11T13:06:50.536Z,98459.73
2022-10-11T13:09:39.379Z,98458.32
2022-10-11T13:12:09.000Z,98460.48
2022-10-11T13:14:42.510Z,98458.00
2022-10-11T13:17:26.600Z,98459.28
2022-10-11T13:20:02.469Z,98458.83
2022-10-11T13:22:29.056Z,98455.90
2022-10-11T13:24:59.647Z,98453.47
2022-10-11T13:27:27.581Z,98449.52
2022-10-11T13:29:59.456Z,98451.92
2022-10-11T13:32:29.884Z,98448.88
2022-10-11T13:35:04.777Z,98448.10
2022-10-11T13:37:42.417Z,98446.77
2022-10-11T13:40:21.124Z,98446.55
2022-10-11T13:42:50.292Z,98442.55
2022-10-11T13:45:23.216Z,98447.20
2022-10-11T13:47:51.495Z,98448.15
2022-10-11T13:50:35.288Z,98445.73
2022-10-11T13:53:07.880Z,98447.21
2022-10-11T13:55:47.605Z,98442.82
2022-10-11T13:58:24.664Z,98441.03
2022-10-11T14:00:58.430Z,98444.81
2022-10-11T14:03:37.550Z,98445.08
2022-10-11T14:06:04.557Z,98444.98
2022-10-11T14:08:37.973Z,98445.24
2022-10-11T14:11:06.979Z,98447.38
2022-10-11T14:13:39.435Z,98443.86
2022-10-11T14:16:21.344Z,98442.01
2022-10-11T14:19:02.307Z,98442.52
2022-10-11T14:21:48.713Z,98437.75
2022-10-11T14:24:17.909Z,98439.47
2022-10-11T14:26:48.312Z,98438.18
2022-10-11T14:29:23.723Z,98440.92
2022-10-11T14:31:51.144Z,98437.64
2022-10-11T14:34:23.538Z,98434.45
2022-10-11T14:36:51.582Z,98438.58
2022-10-11T14:39:22.489Z,98435.09
2022-10-11T14:41:53.088Z,98437.48
2022-10-11T14:44:22.679Z,98435.52
2022-10-11T14:46:51.877Z,98437.98
2022-10-11T14:49:24.637Z,98439.27
2022-10-11T14:51:52.577Z,98440.37
2022-10-11T14:54:25.017Z,98438.19
2022-10-11T14:56:53.557Z,98442.54
2022-10-11T14:59:24.496Z,98444.81
2022-10-11T15:01:53.557Z,98440.45
2022-10-11T15:04:21.959Z,98445.86
2022-10-11T15:06:49.187Z,98445.66
2022-10-11T15:09:17.236Z,98444.41
2022-10-11T15:11:43.906Z,98448.66
2022-10-11T15:14:10.544Z,98448.13
2022-10-11T15:16:37.272Z,98449.86
2022-10-11T15:19:04.065Z,98449.13
2022-10-11T15:21:31.226Z,98452.00
2022-10-11T15:23:57.923Z,98451.71
2022-10-11T15:26:27.342Z,98451.08
2022-10-11T15:28:56.345Z,98456.72
2022-10-11T15:31:24.119Z,98457.36
2022-10-11T15:33:51.582Z,98465.88
2022-10-11T15:36:21.722Z,98466.50
2022-10-11T15:38:49.276Z,98467.58
2022-10-11T15:41:18.916Z,98464.95
2022-10-11T15:43:47.442Z,98461.76
2022-10-11T15:46:25.120Z,98468.31
2022-10-11T15:48:52.364Z,98472.29
2022-10-11T15:51:19.451Z,98471.92
2022-10-11T15:53:46.491Z,98472.16
2022-10-11T15:56:17.094Z,98469.92
2022-10-11T15:58:44.125Z,98473.23
2022-10-11T16:01:20.070Z,98473.96
2022-10-11T16:03:48.785Z,98473.15
2022-10-11T16:06:15.991Z,98478.66
2022-10-11T16:08:42.744Z,98480.14
2022-10-11T16:11:10.429Z,98485.33
2022-10-11T16:13:38.077Z,98482.56
2022-10-11T16:16:07.833Z,98486.77
2022-10-11T16:18:35.861Z,98491.67
2022-10-11T16:21:10.497Z,98495.52
2022-10-11T16:23:37.895Z,98501.36
2022-10-11T16:26:07.685Z,98505.35
2022-10-11T16:28:34.907Z,98504.88
2022-10-11T16:31:08.037Z,98508.85
2022-10-11T16:33:34.679Z,98512.35
2022-10-11T16:36:21.219Z,98513.02
2022-10-11T16:38:47.920Z,98515.52
2022-10-11T16:41:14.509Z,98514.73
2022-10-11T16:43:41.109Z,98519.60
2022-10-11T16:46:08.103Z,98520.32
2022-10-11T16:48:35.066Z,98517.95
2022-10-11T16:51:06.705Z,98520.48
2022-10-11T16:53:34.902Z,98522.48
2022-10-11T16:56:09.252Z,98522.91
2022-10-11T16:58:36.742Z,98520.57
2022-10-11T17:01:08.815Z,98526.91
2022-10-11T17:03:35.542Z,98526.48
2022-10-11T17:06:02.565Z,98526.73
2022-10-11T17:08:29.443Z,98529.24
2022-10-11T17:10:57.680Z,98531.85
2022-10-11T17:13:24.836Z,98533.43
2022-10-11T17:15:51.509Z,98536.63
2022-10-11T17:18:18.171Z,98534.35
2022-10-11T17:20:44.845Z,98530.92
2022-10-11T17:23:11.923Z,98534.50
2022-10-11T17:25:44.257Z,98540.90
2022-10-11T17:28:11.180Z,98539.50
2022-10-11T17:30:41.010Z,98538.27
2022-10-11T17:33:08.035Z,98541.04
2022-10-11T17:35:35.000Z,98544.37
2022-10-11T17:38:05.965Z,98540.75
2022-10-11T17:40:33.972Z,98541.53
2022-10-11T17:43:00.664Z,98542.92
2022-10-11T17:45:27.283Z,98544.73
2022-10-11T17:47:54.011Z,98543.78
2022-10-11T17:50:20.719Z,98546.17
2022-10-11T17:52:47.508Z,98548.45
2022-10-11T17:55:14.205Z,98548.92
2022-10-11T17:57:40.847Z,98551.34
2022-10-11T18:00:08.208Z,98550.71
2022-10-11T18:02:34.882Z,98555.05
2022-10-11T18:05:01.516Z,98555.48
2022-10-11T18:07:28.222Z,98556.14
2022-10-11T18:09:54.898Z,98557.35
2022-10-11T18:12:21.549Z,98559.77
2022-10-11T18:14:48.169Z,98560.13
2022-10-11T18:17:14.861Z,98560.23
2022-10-11T18:19:41.560Z,98559.70
2022-10-11T18:22:08.491Z,98559.98
2022-10-11T18:24:35.143Z,98560.13
2022-10-11T18:27:01.810Z,98561.55
2022-10-11T18:29:29.874Z,98562.84
2022-10-11T18:31:56.587Z,98560.21
2022-10-11T18:34:23.288Z,98562.19
2022-10-11T18:36:49.947Z,98562.72
2022-10-11T18:39:16.603Z,98561.64
2022-10-11T18:41:44.741Z,98564.16
2022-10-11T18:44:16.461Z,98564.63
2022-10-11T18:46:44.321Z,98567.83
2022-10-11T18:49:11.729Z,98566.73
2022-10-11T18:51:41.308Z,98564.91
2022-10-11T18:54:11.417Z,98565.73
2022-10-11T18:56:39.751Z,98564.70
2022-10-11T18:59:08.612Z,98566.21
2022-10-11T19:01:38.807Z,98563.63
2022-10-11T19:04:07.502Z,98565.41
2022-10-11T19:06:37.912Z,98564.64
2022-10-11T19:09:17.916Z,98563.65
2022-10-11T19:11:44.627Z,98562.35
2022-10-11T19:14:15.343Z,98563.18
2022-10-11T19:16:45.682Z,98567.27
2022-10-11T19:19:12.962Z,98569.08
2022-10-11T19:21:39.889Z,98569.57
2022-10-11T19:24:07.150Z,98573.68
2022-10-11T19:26:37.500Z,98578.86
2022-10-11T19:29:14.913Z,98577.40
2022-10-11T19:31:44.825Z,98576.63
2022-10-11T19:34:12.213Z,98579.36
2022-10-11T19:36:41.984Z,98579.61
2022-10-11T19:39:12.340Z,98580.55
2022-10-11T19:41:39.031Z,98579.84
2022-10-11T19:44:06.215Z,98579.55
2022-10-11T19:49:24.107Z,98575.25
2022-10-11T19:51:51.551Z,98573.40
2022-10-11T19:54:18.225Z,98573.13
2022-10-11T19:56:44.896Z,98578.98
2022-10-11T19:59:13.019Z,98581.88
2022-10-11T20:01:40.904Z,98588.52
2022-10-11T20:04:22.630Z,98589.38
2022-10-11T20:06:57.497Z,98589.48
2022-10-11T20:09:31.419Z,98587.69
2022-10-11T20:11:59.019Z,98589.72
2022-10-11T20:14:25.920Z,98589.79
2022-10-11T20:16:52.853Z,98592.45
2022-10-11T20:19:19.582Z,98592.27
2022-10-11T20:21:48.645Z,98591.51
2022-10-11T20:24:15.220Z,98593.64
2022-10-11T20:26:41.846Z,98595.58
2022-10-11T20:29:08.542Z,98595.45
2022-10-11T20:31:40.922Z,98595.36
2022-10-11T20:34:08.069Z,98594.53
2022-10-11T20:36:36.419Z,98592.86
2022-10-11T20:39:05.111Z,98598.60
2022-10-11T20:41:34.381Z,98596.77
2022-10-11T20:44:02.261Z,98591.80
2022-10-11T20:46:31.671Z,98596.73
2022-10-11T20:49:03.902Z,98597.06
2022-10-11T20:51:33.005Z,98594.45
2022-10-11T20:54:01.051Z,98596.31
2022-10-11T20:56:28.493Z,98594.41
2022-10-11T20:58:56.388Z,98596.19
2022-10-11T21:01:29.421Z,98596.88
2022-10-11T21:04:01.394Z,98592.23
2022-10-11T21:06:29.763Z,98594.98
2022-10-11T21:08:57.013Z,98594.29
2022-10-11T21:11:28.208Z,98593.56
2022-10-11T21:13:56.932Z,98597.53
2022-10-11T21:16:24.711Z,98597.77
2022-10-11T21:18:53.015Z,98601.23
2022-10-11T21:21:20.313Z,98600.08
2022-10-11T21:23:47.623Z,98599.74
2022-10-11T21:26:18.395Z,98599.27
2022-10-11T21:28:46.895Z,98596.62
2022-10-11T21:31:17.013Z,98597.43
2022-10-11T21:33:44.790Z,98598.02
2022-10-11T21:36:14.456Z,98595.79
2022-10-11T21:38:41.281Z,98597.05
2022-10-11T21:41:10.866Z,98597.02
2022-10-11T21:43:38.484Z,98593.41
2022-10-11T21:46:23.800Z,98591.52
2022-10-11T21:48:54.002Z,98591.63
2022-10-11T21:51:24.799Z,98593.53
2022-10-11T21:53:51.588Z,98596.36
2022-10-11T21:56:18.793Z,98594.24
2022-10-11T21:58:49.595Z,98590.84
2022-10-11T22:01:17.870Z,98593.04
2022-10-11T22:03:45.358Z,98591.05
2022-10-11T22:06:12.160Z,98591.75
2022-10-11T22:08:39.543Z,98591.23
2022-10-11T22:11:06.692Z,98588.95
2022-10-11T22:13:34.556Z,98591.08
2022-10-11T22:16:03.702Z,98593.08
2022-10-11T22:18:33.487Z,98593.16
2022-10-11T22:21:18.398Z,98594.03
2022-10-11T22:23:47.339Z,98597.89
2022-10-11T22:26:17.119Z,98596.31
2022-10-11T22:28:46.625Z,98600.02
2022-10-11T22:31:14.219Z,98596.33
2022-10-11T22:33:42.047Z,98599.64
2022-10-11T22:36:10.427Z,98598.34
2022-10-11T22:38:38.335Z,98597.55
2022-10-11T22:41:05.363Z,98596.52
2022-10-11T22:43:32.058Z,98591.59
2022-10-11T22:45:58.901Z,98588.59
2022-10-11T22:48:26.158Z,98594.05
2022-10-11T22:50:53.229Z,98594.41
2022-10-11T22:53:20.117Z,98591.86
2022-10-11T22:55:47.415Z,98591.94
2022-10-11T22:58:14.284Z,98584.70
2022-10-11T23:00:40.872Z,98583.65
2022-10-11T23:03:07.538Z,98582.23
2022-10-11T23:05:35.222Z,98582.98
2022-10-11T23:08:01.819Z,98580.72
2022-10-11T23:10:28.407Z,98576.55
2022-10-11T23:12:54.985Z,98580.36
2022-10-11T23:15:21.564Z,98580.09
2022-10-11T23:17:48.270Z,98581.68
2022-10-11T23:20:15.024Z,98585.88
2022-10-11T23:22:41.586Z,98585.11
2022-10-11T23:25:08.733Z,98582.55
2022-10-11T23:27:35.548Z,98582.06
2022-10-11T23:30:02.288Z,98580.13
2022-10-11T23:32:28.921Z,98582.78
2022-10-11T23:34:55.677Z,98582.27
2022-10-11T23:37:22.290Z,98587.52
2022-10-11T23:39:48.855Z,98591.34
2022-10-11T23:42:15.459Z,98590.87
2022-10-11T23:44:42.048Z,98594.90
2022-10-11T23:47:08.702Z,98594.41
2022-10-11T23:49:35.272Z,98590.69
2022-10-11T23:52:01.875Z,98592.98
2022-10-11T23:54:28.493Z,98591.52
2022-10-11T23:56:55.080Z,98587.35
2022-10-11T23:59:21.630Z,98588.95
